sensor_id;sensor_type;location;lat;lon;timestamp;temperature;humidity
72326;DHT22;60278;47.980;18.780;2022-12-05T00:03:29;6.64;89.64
72326;DHT22;60278;47.980;18.780;2022-12-05T00:07:00;6.57;90.75
72326;DHT22;60278;47.980;18.780;2022-12-05T00:10:31;6.56;90.21
72326;DHT22;60278;47.980;18.780;2022-12-05T00:14:03;6.60;90.57
72326;DHT22;60278;47.980;18.780;2022-12-05T00:17:34;6.60;90.74
72326;DHT22;60278;47.980;18.780;2022-12-05T00:21:06;6.67;90.25
72326;DHT22;60278;47.980;18.780;2022-12-05T00:24:38;6.47;91.04
72326;DHT22;60278;47.980;18.780;2022-12-05T00:28:09;6.47;90.56
72326;DHT22;60278;47.980;18.780;2022-12-05T00:31:40;6.47;90.13
72326;DHT22;60278;47.980;18.780;2022-12-05T00:35:11;6.66;89.50
72326;DHT22;60278;47.980;18.780;2022-12-05T00:38:42;6.44;90.25
72326;DHT22;60278;47.980;18.780;2022-12-05T00:42:13;6.50;90.01
72326;DHT22;60278;47.980;18.780;2022-12-05T00:45:44;6.63;89.66
72326;DHT22;60278;47.980;18.780;2022-12-05T00:49:15;6.69;89.30
72326;DHT22;60278;47.980;18.780;2022-12-05T00:52:46;6.64;88.69
72326;DHT22;60278;47.980;18.780;2022-12-05T00:56:20;6.58;89.38
72326;DHT22;60278;47.980;18.780;2022-12-05T00:59:52;6.57;89.18
72326;DHT22;60278;47.980;18.780;2022-12-05T01:03:23;6.66;88.90
72326;DHT22;60278;47.980;18.780;2022-12-05T01:06:56;6.69;89.91
72326;DHT22;60278;47.980;18.780;2022-12-05T01:10:27;6.73;90.32
72326;DHT22;60278;47.980;18.780;2022-12-05T01:13:58;6.42;92.05
72326;DHT22;60278;47.980;18.780;2022-12-05T01:17:29;6.46;91.97
72326;DHT22;60278;47.980;18.780;2022-12-05T01:21:03;6.26;93.19
72326;DHT22;60278;47.980;18.780;2022-12-05T01:24:34;6.37;92.52
72326;DHT22;60278;47.980;18.780;2022-12-05T01:28:06;6.37;92.85
72326;DHT22;60278;47.980;18.780;2022-12-05T01:31:37;6.40;92.65
72326;DHT22;60278;47.980;18.780;2022-12-05T01:35:08;6.44;92.87
72326;DHT22;60278;47.980;18.780;2022-12-05T01:38:40;6.47;92.72
72326;DHT22;60278;47.980;18.780;2022-12-05T01:42:11;6.30;93.26
72326;DHT22;60278;47.980;18.780;2022-12-05T01:45:44;6.33;93.68
72326;DHT22;60278;47.980;18.780;2022-12-05T01:49:22;6.43;92.69
72326;DHT22;60278;47.980;18.780;2022-12-05T01:52:55;6.26;93.65
72326;DHT22;60278;47.980;18.780;2022-12-05T01:56:26;6.05;95.03
72326;DHT22;60278;47.980;18.780;2022-12-05T02:00:01;6.03;94.92
72326;DHT22;60278;47.980;18.780;2022-12-05T02:03:43;6.09;94.92
72326;DHT22;60278;47.980;18.780;2022-12-05T02:07:17;6.16;95.15
72326;DHT22;60278;47.980;18.780;2022-12-05T02:10:51;6.01;95.53
72326;DHT22;60278;47.980;18.780;2022-12-05T02:26:37;5.95;96.22
72326;DHT22;60278;47.980;18.780;2022-12-05T02:30:22;5.88;96.38
72326;DHT22;60278;47.980;18.780;2022-12-05T02:45:40;6.18;94.74
72326;DHT22;60278;47.980;18.780;2022-12-05T02:49:17;6.03;94.87
72326;DHT22;60278;47.980;18.780;2022-12-05T02:52:53;5.91;95.18
72326;DHT22;60278;47.980;18.780;2022-12-05T02:56:28;5.91;94.91
72326;DHT22;60278;47.980;18.780;2022-12-05T03:00:02;6.22;93.26
72326;DHT22;60278;47.980;18.780;2022-12-05T03:03:34;6.23;93.38
72326;DHT22;60278;47.980;18.780;2022-12-05T03:07:08;6.03;93.11
72326;DHT22;60278;47.980;18.780;2022-12-05T03:10:42;6.01;93.06
72326;DHT22;60278;47.980;18.780;2022-12-05T03:14:26;5.97;93.37
72326;DHT22;60278;47.980;18.780;2022-12-05T03:18:05;6.18;93.02
72326;DHT22;60278;47.980;18.780;2022-12-05T03:21:48;6.21;92.64
72326;DHT22;60278;47.980;18.780;2022-12-05T03:25:24;6.26;92.21
72326;DHT22;60278;47.980;18.780;2022-12-05T03:36:19;6.13;92.11
72326;DHT22;60278;47.980;18.780;2022-12-05T03:40:04;6.09;92.18
72326;DHT22;60278;47.980;18.780;2022-12-05T03:47:28;6.08;92.52
72326;DHT22;60278;47.980;18.780;2022-12-05T03:51:05;5.99;93.10
72326;DHT22;60278;47.980;18.780;2022-12-05T03:54:43;5.94;93.92
72326;DHT22;60278;47.980;18.780;2022-12-05T03:58:24;5.82;94.68
72326;DHT22;60278;47.980;18.780;2022-12-05T04:01:57;5.87;94.73
72326;DHT22;60278;47.980;18.780;2022-12-05T04:05:49;5.87;95.43
72326;DHT22;60278;47.980;18.780;2022-12-05T04:09:26;5.77;96.08
72326;DHT22;60278;47.980;18.780;2022-12-05T04:13:01;5.77;95.97
72326;DHT22;60278;47.980;18.780;2022-12-05T04:17:04;6.09;93.65
72326;DHT22;60278;47.980;18.780;2022-12-05T04:20:38;5.97;93.83
72326;DHT22;60278;47.980;18.780;2022-12-05T04:24:30;6.06;93.53
72326;DHT22;60278;47.980;18.780;2022-12-05T04:28:33;6.12;92.13
72326;DHT22;60278;47.980;18.780;2022-12-05T04:32:08;6.19;91.78
72326;DHT22;60278;47.980;18.780;2022-12-05T04:42:50;5.98;92.34
72326;DHT22;60278;47.980;18.780;2022-12-05T04:46:23;5.97;92.30
72326;DHT22;60278;47.980;18.780;2022-12-05T04:49:54;5.87;92.51
72326;DHT22;60278;47.980;18.780;2022-12-05T04:53:28;5.85;92.37
72326;DHT22;60278;47.980;18.780;2022-12-05T04:57:21;5.71;93.24
72326;DHT22;60278;47.980;18.780;2022-12-05T05:01:13;5.67;93.28
72326;DHT22;60278;47.980;18.780;2022-12-05T05:04:48;5.62;93.15
72326;DHT22;60278;47.980;18.780;2022-12-05T05:08:23;5.44;93.54
72326;DHT22;60278;47.980;18.780;2022-12-05T05:11:54;5.26;93.89
72326;DHT22;60278;47.980;18.780;2022-12-05T05:15:25;5.19;94.46
72326;DHT22;60278;47.980;18.780;2022-12-05T05:18:56;5.06;94.49
72326;DHT22;60278;47.980;18.780;2022-12-05T05:22:27;4.61;95.48
72326;DHT22;60278;47.980;18.780;2022-12-05T05:25:58;4.97;94.57
72326;DHT22;60278;47.980;18.780;2022-12-05T05:29:29;5.15;94.22
72326;DHT22;60278;47.980;18.780;2022-12-05T05:33:00;5.09;94.63
72326;DHT22;60278;47.980;18.780;2022-12-05T05:36:31;4.99;94.87
72326;DHT22;60278;47.980;18.780;2022-12-05T05:40:04;4.67;95.61
72326;DHT22;60278;47.980;18.780;2022-12-05T05:43:35;4.59;95.84
72326;DHT22;60278;47.980;18.780;2022-12-05T05:47:06;4.55;95.96
72326;DHT22;60278;47.980;18.780;2022-12-05T05:50:37;4.75;95.29
72326;DHT22;60278;47.980;18.780;2022-12-05T05:54:15;4.72;95.64
72326;DHT22;60278;47.980;18.780;2022-12-05T05:57:46;4.62;96.34
72326;DHT22;60278;47.980;18.780;2022-12-05T06:01:18;4.79;96.12
72326;DHT22;60278;47.980;18.780;2022-12-05T06:04:52;4.86;95.48
72326;DHT22;60278;47.980;18.780;2022-12-05T06:08:23;4.73;95.92
72326;DHT22;60278;47.980;18.780;2022-12-05T06:11:54;4.81;96.33
72326;DHT22;60278;47.980;18.780;2022-12-05T06:15:25;4.83;95.66
72326;DHT22;60278;47.980;18.780;2022-12-05T06:18:57;4.89;95.33
72326;DHT22;60278;47.980;18.780;2022-12-05T06:22:28;4.82;95.44
72326;DHT22;60278;47.980;18.780;2022-12-05T06:26:00;4.90;95.40
72326;DHT22;60278;47.980;18.780;2022-12-05T06:29:31;4.72;96.11
72326;DHT22;60278;47.980;18.780;2022-12-05T06:33:03;4.59;96.56
72326;DHT22;60278;47.980;18.780;2022-12-05T06:36:34;4.61;96.22
72326;DHT22;60278;47.980;18.780;2022-12-05T06:40:05;4.52;96.34
72326;DHT22;60278;47.980;18.780;2022-12-05T06:43:37;4.48;96.73
72326;DHT22;60278;47.980;18.780;2022-12-05T06:47:08;4.40;97.27
72326;DHT22;60278;47.980;18.780;2022-12-05T06:50:39;4.33;97.54
72326;DHT22;60278;47.980;18.780;2022-12-05T06:54:11;4.31;97.17
72326;DHT22;60278;47.980;18.780;2022-12-05T06:57:42;4.42;97.35
72326;DHT22;60278;47.980;18.780;2022-12-05T07:01:18;4.44;96.76
72326;DHT22;60278;47.980;18.780;2022-12-05T07:05:09;4.27;97.24
72326;DHT22;60278;47.980;18.780;2022-12-05T07:08:40;4.48;96.92
72326;DHT22;60278;47.980;18.780;2022-12-05T07:12:13;4.64;96.65
72326;DHT22;60278;47.980;18.780;2022-12-05T07:15:46;4.88;95.76
72326;DHT22;60278;47.980;18.780;2022-12-05T07:19:17;4.96;95.47
72326;DHT22;60278;47.980;18.780;2022-12-05T07:22:48;5.18;95.43
72326;DHT22;60278;47.980;18.780;2022-12-05T07:26:21;5.37;95.99
72326;DHT22;60278;47.980;18.780;2022-12-05T07:29:53;5.72;94.99
72326;DHT22;60278;47.980;18.780;2022-12-05T07:33:24;5.71;95.22
72326;DHT22;60278;47.980;18.780;2022-12-05T07:36:55;5.71;95.39
72326;DHT22;60278;47.980;18.780;2022-12-05T07:40:26;5.84;95.06
72326;DHT22;60278;47.980;18.780;2022-12-05T07:43:58;6.02;94.56
72326;DHT22;60278;47.980;18.780;2022-12-05T07:47:29;6.02;94.54
72326;DHT22;60278;47.980;18.780;2022-12-05T07:51:02;6.11;94.37
72326;DHT22;60278;47.980;18.780;2022-12-05T07:54:33;6.16;94.44
72326;DHT22;60278;47.980;18.780;2022-12-05T07:58:05;6.25;94.44
72326;DHT22;60278;47.980;18.780;2022-12-05T08:01:36;6.21;94.36
72326;DHT22;60278;47.980;18.780;2022-12-05T08:05:07;6.26;93.79
72326;DHT22;60278;47.980;18.780;2022-12-05T08:08:38;6.33;93.63
72326;DHT22;60278;47.980;18.780;2022-12-05T08:12:09;6.39;93.45
72326;DHT22;60278;47.980;18.780;2022-12-05T08:15:40;6.39;93.18
72326;DHT22;60278;47.980;18.780;2022-12-05T08:19:12;6.50;93.33
72326;DHT22;60278;47.980;18.780;2022-12-05T08:22:43;6.42;93.84
72326;DHT22;60278;47.980;18.780;2022-12-05T08:26:17;6.58;92.99
72326;DHT22;60278;47.980;18.780;2022-12-05T08:29:50;6.74;93.16
72326;DHT22;60278;47.980;18.780;2022-12-05T08:33:21;6.92;92.54
72326;DHT22;60278;47.980;18.780;2022-12-05T08:36:52;6.85;92.50
72326;DHT22;60278;47.980;18.780;2022-12-05T08:40:23;6.77;92.97
72326;DHT22;60278;47.980;18.780;2022-12-05T08:43:56;6.87;92.93
72326;DHT22;60278;47.980;18.780;2022-12-05T08:47:27;6.81;93.00
72326;DHT22;60278;47.980;18.780;2022-12-05T08:51:04;6.94;92.75
72326;DHT22;60278;47.980;18.780;2022-12-05T08:54:35;7.01;92.27
72326;DHT22;60278;47.980;18.780;2022-12-05T08:58:06;7.08;92.54
72326;DHT22;60278;47.980;18.780;2022-12-05T09:01:37;7.16;92.16
72326;DHT22;60278;47.980;18.780;2022-12-05T09:05:08;7.28;91.88
72326;DHT22;60278;47.980;18.780;2022-12-05T09:08:40;7.56;91.57
72326;DHT22;60278;47.980;18.780;2022-12-05T09:12:11;7.26;91.97
72326;DHT22;60278;47.980;18.780;2022-12-05T09:15:44;7.42;90.70
72326;DHT22;60278;47.980;18.780;2022-12-05T09:19:18;7.08;91.05
72326;DHT22;60278;47.980;18.780;2022-12-05T09:22:53;7.28;90.66
72326;DHT22;60278;47.980;18.780;2022-12-05T09:26:26;7.26;90.95
72326;DHT22;60278;47.980;18.780;2022-12-05T09:29:57;7.36;90.39
72326;DHT22;60278;47.980;18.780;2022-12-05T09:33:30;6.91;91.29
72326;DHT22;60278;47.980;18.780;2022-12-05T09:37:03;7.12;91.25
72326;DHT22;60278;47.980;18.780;2022-12-05T09:40:39;7.12;90.75
72326;DHT22;60278;47.980;18.780;2022-12-05T09:48:10;7.21;90.80
72326;DHT22;60278;47.980;18.780;2022-12-05T09:51:44;7.53;89.90
72326;DHT22;60278;47.980;18.780;2022-12-05T09:55:18;7.89;89.10
72326;DHT22;60278;47.980;18.780;2022-12-05T09:58:53;8.73;87.61
72326;DHT22;60278;47.980;18.780;2022-12-05T10:06:49;8.82;86.73
72326;DHT22;60278;47.980;18.780;2022-12-05T10:10:29;8.94;87.16
72326;DHT22;60278;47.980;18.780;2022-12-05T10:22:22;8.79;86.46
72326;DHT22;60278;47.980;18.780;2022-12-05T10:25:58;8.77;87.13
72326;DHT22;60278;47.980;18.780;2022-12-05T10:29:37;9.30;84.86
72326;DHT22;60278;47.980;18.780;2022-12-05T10:33:29;9.58;85.36
72326;DHT22;60278;47.980;18.780;2022-12-05T10:37:17;9.19;85.75
72326;DHT22;60278;47.980;18.780;2022-12-05T10:40:51;9.52;84.80
72326;DHT22;60278;47.980;18.780;2022-12-05T10:44:24;9.28;84.94
72326;DHT22;60278;47.980;18.780;2022-12-05T10:47:56;9.50;84.61
72326;DHT22;60278;47.980;18.780;2022-12-05T10:51:27;9.17;85.08
72326;DHT22;60278;47.980;18.780;2022-12-05T10:55:03;10.02;83.03
72326;DHT22;60278;47.980;18.780;2022-12-05T10:58:35;9.31;85.65
72326;DHT22;60278;47.980;18.780;2022-12-05T11:05:56;9.17;86.31
72326;DHT22;60278;47.980;18.780;2022-12-05T11:09:36;8.99;85.54
72326;DHT22;60278;47.980;18.780;2022-12-05T11:13:24;9.16;85.12
72326;DHT22;60278;47.980;18.780;2022-12-05T11:16:57;9.24;85.65
72326;DHT22;60278;47.980;18.780;2022-12-05T11:20:34;9.16;85.21
72326;DHT22;60278;47.980;18.780;2022-12-05T11:24:29;9.10;85.13
72326;DHT22;60278;47.980;18.780;2022-12-05T11:31:50;10.12;82.23
72326;DHT22;60278;47.980;18.780;2022-12-05T11:35:25;10.29;81.44
72326;DHT22;60278;47.980;18.780;2022-12-05T11:38:57;10.44;80.68
72326;DHT22;60278;47.980;18.780;2022-12-05T11:46:26;9.37;83.85
72326;DHT22;60278;47.980;18.780;2022-12-05T11:50:22;9.28;83.99
72326;DHT22;60278;47.980;18.780;2022-12-05T12:02:03;8.99;85.02
72326;DHT22;60278;47.980;18.780;2022-12-05T12:09:44;8.72;86.48
72326;DHT22;60278;47.980;18.780;2022-12-05T12:21:16;8.46;88.13
72326;DHT22;60278;47.980;18.780;2022-12-05T12:28:45;8.65;87.08
72326;DHT22;60278;47.980;18.780;2022-12-05T12:36:20;8.53;88.92
72326;DHT22;60278;47.980;18.780;2022-12-05T12:40:16;8.66;88.94
72326;DHT22;60278;47.980;18.780;2022-12-05T12:51:12;8.73;88.62
72326;DHT22;60278;47.980;18.780;2022-12-05T12:55:20;8.72;88.64
72326;DHT22;60278;47.980;18.780;2022-12-05T12:59:08;8.66;87.90
72326;DHT22;60278;47.980;18.780;2022-12-05T13:03:02;8.62;88.53
72326;DHT22;60278;47.980;18.780;2022-12-05T13:06:56;8.46;88.81
72326;DHT22;60278;47.980;18.780;2022-12-05T13:10:32;8.34;89.91
72326;DHT22;60278;47.980;18.780;2022-12-05T13:14:10;8.42;89.03
72326;DHT22;60278;47.980;18.780;2022-12-05T13:17:44;8.25;89.71
72326;DHT22;60278;47.980;18.780;2022-12-05T13:21:17;8.34;89.25
72326;DHT22;60278;47.980;18.780;2022-12-05T13:24:52;8.40;89.62
72326;DHT22;60278;47.980;18.780;2022-12-05T13:32:06;8.52;89.65
72326;DHT22;60278;47.980;18.780;2022-12-05T13:36:04;8.75;88.51
72326;DHT22;60278;47.980;18.780;2022-12-05T13:39:56;8.65;88.05
72326;DHT22;60278;47.980;18.780;2022-12-05T13:43:49;8.80;87.79
72326;DHT22;60278;47.980;18.780;2022-12-05T13:51:02;8.32;89.16
72326;DHT22;60278;47.980;18.780;2022-12-05T13:54:41;8.03;90.28
72326;DHT22;60278;47.980;18.780;2022-12-05T14:01:53;7.58;91.43
72326;DHT22;60278;47.980;18.780;2022-12-05T14:05:37;7.53;91.50
72326;DHT22;60278;47.980;18.780;2022-12-05T14:12:51;7.58;91.26
72326;DHT22;60278;47.980;18.780;2022-12-05T14:27:40;7.67;91.60
72326;DHT22;60278;47.980;18.780;2022-12-05T14:35:12;7.52;91.92
72326;DHT22;60278;47.980;18.780;2022-12-05T14:38:44;7.45;91.85
72326;DHT22;60278;47.980;18.780;2022-12-05T14:42:34;7.45;92.06
72326;DHT22;60278;47.980;18.780;2022-12-05T14:46:14;7.48;92.28
72326;DHT22;60278;47.980;18.780;2022-12-05T14:49:52;7.42;92.14
72326;DHT22;60278;47.980;18.780;2022-12-05T14:57:11;7.29;93.02
72326;DHT22;60278;47.980;18.780;2022-12-05T15:00:45;7.38;93.07
72326;DHT22;60278;47.980;18.780;2022-12-05T15:04:22;7.35;92.61
72326;DHT22;60278;47.980;18.780;2022-12-05T15:07:54;7.49;91.96
72326;DHT22;60278;47.980;18.780;2022-12-05T15:11:26;7.51;91.29
72326;DHT22;60278;47.980;18.780;2022-12-05T15:15:05;7.21;93.26
72326;DHT22;60278;47.980;18.780;2022-12-05T15:18:49;7.04;93.70
72326;DHT22;60278;47.980;18.780;2022-12-05T15:22:21;6.94;94.36
72326;DHT22;60278;47.980;18.780;2022-12-05T15:25:55;6.84;95.36
72326;DHT22;60278;47.980;18.780;2022-12-05T15:29:27;6.83;94.88
72326;DHT22;60278;47.980;18.780;2022-12-05T15:33:00;6.70;95.06
72326;DHT22;60278;47.980;18.780;2022-12-05T15:36:34;6.58;95.98
72326;DHT22;60278;47.980;18.780;2022-12-05T15:40:10;6.57;95.79
72326;DHT22;60278;47.980;18.780;2022-12-05T15:43:54;6.56;95.88
72326;DHT22;60278;47.980;18.780;2022-12-05T15:47:25;6.60;95.69
72326;DHT22;60278;47.980;18.780;2022-12-05T15:50:56;6.54;95.63
72326;DHT22;60278;47.980;18.780;2022-12-05T15:54:32;6.52;95.34
72326;DHT22;60278;47.980;18.780;2022-12-05T15:58:13;6.60;95.61
72326;DHT22;60278;47.980;18.780;2022-12-05T16:01:52;6.53;95.27
72326;DHT22;60278;47.980;18.780;2022-12-05T16:05:56;6.53;95.23
72326;DHT22;60278;47.980;18.780;2022-12-05T16:09:31;6.47;95.08
72326;DHT22;60278;47.980;18.780;2022-12-05T16:13:05;6.47;95.27
72326;DHT22;60278;47.980;18.780;2022-12-05T16:16:37;6.18;96.20
72326;DHT22;60278;47.980;18.780;2022-12-05T16:23:46;6.46;95.72
72326;DHT22;60278;47.980;18.780;2022-12-05T16:27:25;6.61;94.91
72326;DHT22;60278;47.980;18.780;2022-12-05T16:30:59;6.66;95.09
72326;DHT22;60278;47.980;18.780;2022-12-05T16:34:32;6.74;94.47
72326;DHT22;60278;47.980;18.780;2022-12-05T16:38:18;6.76;94.56
72326;DHT22;60278;47.980;18.780;2022-12-05T16:41:50;6.74;94.92
72326;DHT22;60278;47.980;18.780;2022-12-05T16:45:38;6.84;94.58
72326;DHT22;60278;47.980;18.780;2022-12-05T16:49:23;6.88;94.28
72326;DHT22;60278;47.980;18.780;2022-12-05T16:53:03;6.98;93.73
72326;DHT22;60278;47.980;18.780;2022-12-05T16:56:43;6.90;93.98
72326;DHT22;60278;47.980;18.780;2022-12-05T17:00:14;6.69;95.25
72326;DHT22;60278;47.980;18.780;2022-12-05T17:03:45;6.76;95.06
72326;DHT22;60278;47.980;18.780;2022-12-05T17:07:17;6.81;94.35
72326;DHT22;60278;47.980;18.780;2022-12-05T17:10:49;6.76;94.83
72326;DHT22;60278;47.980;18.780;2022-12-05T17:14:20;6.66;95.43
72326;DHT22;60278;47.980;18.780;2022-12-05T17:17:51;6.60;95.54
72326;DHT22;60278;47.980;18.780;2022-12-05T17:21:25;6.49;95.81
72326;DHT22;60278;47.980;18.780;2022-12-05T17:24:56;6.53;95.54
72326;DHT22;60278;47.980;18.780;2022-12-05T17:28:29;6.64;95.79
72326;DHT22;60278;47.980;18.780;2022-12-05T17:32:00;6.69;95.55
72326;DHT22;60278;47.980;18.780;2022-12-05T17:35:32;6.64;96.12
72326;DHT22;60278;47.980;18.780;2022-12-05T17:39:03;6.64;95.97
72326;DHT22;60278;47.980;18.780;2022-12-05T17:42:34;6.70;95.24
72326;DHT22;60278;47.980;18.780;2022-12-05T17:46:05;6.63;95.52
72326;DHT22;60278;47.980;18.780;2022-12-05T17:49:37;6.70;95.65
72326;DHT22;60278;47.980;18.780;2022-12-05T17:53:13;6.64;96.10
72326;DHT22;60278;47.980;18.780;2022-12-05T17:56:44;6.69;95.74
72326;DHT22;60278;47.980;18.780;2022-12-05T18:00:17;6.76;95.64
72326;DHT22;60278;47.980;18.780;2022-12-05T18:03:48;6.74;96.08
72326;DHT22;60278;47.980;18.780;2022-12-05T18:07:19;6.91;95.28
72326;DHT22;60278;47.980;18.780;2022-12-05T18:10:50;7.00;94.89
72326;DHT22;60278;47.980;18.780;2022-12-05T18:14:21;6.91;95.51
72326;DHT22;60278;47.980;18.780;2022-12-05T18:17:52;6.83;96.26
72326;DHT22;60278;47.980;18.780;2022-12-05T18:21:25;7.02;95.73
72326;DHT22;60278;47.980;18.780;2022-12-05T18:24:56;7.01;96.05
72326;DHT22;60278;47.980;18.780;2022-12-05T18:28:27;6.83;97.11
72326;DHT22;60278;47.980;18.780;2022-12-05T18:31:58;6.85;97.53
72326;DHT22;60278;47.980;18.780;2022-12-05T18:35:29;6.98;97.21
72326;DHT22;60278;47.980;18.780;2022-12-05T18:39:13;7.05;97.13
72326;DHT22;60278;47.980;18.780;2022-12-05T18:42:44;7.01;97.45
72326;DHT22;60278;47.980;18.780;2022-12-05T18:46:15;7.08;97.42
72326;DHT22;60278;47.980;18.780;2022-12-05T18:49:46;6.98;97.87
72326;DHT22;60278;47.980;18.780;2022-12-05T18:53:17;7.07;97.83
72326;DHT22;60278;47.980;18.780;2022-12-05T18:56:48;7.04;97.34
72326;DHT22;60278;47.980;18.780;2022-12-05T19:00:22;6.95;97.23
72326;DHT22;60278;47.980;18.780;2022-12-05T19:03:55;6.90;97.18
72326;DHT22;60278;47.980;18.780;2022-12-05T19:07:27;6.98;96.92
72326;DHT22;60278;47.980;18.780;2022-12-05T19:11:03;6.63;98.65
72326;DHT22;60278;47.980;18.780;2022-12-05T19:14:35;6.58;98.91
72326;DHT22;60278;47.980;18.780;2022-12-05T19:18:07;6.58;99.56
72326;DHT22;60278;47.980;18.780;2022-12-05T19:21:39;6.77;98.72
72326;DHT22;60278;47.980;18.780;2022-12-05T19:25:10;6.63;99.65
72326;DHT22;60278;47.980;18.780;2022-12-05T19:28:41;6.77;99.17
72326;DHT22;60278;47.980;18.780;2022-12-05T19:32:12;6.74;98.81
72326;DHT22;60278;47.980;18.780;2022-12-05T19:35:44;6.69;98.91
72326;DHT22;60278;47.980;18.780;2022-12-05T19:39:20;6.61;99.76
72326;DHT22;60278;47.980;18.780;2022-12-05T19:42:51;6.61;99.82
72326;DHT22;60278;47.980;18.780;2022-12-05T19:46:24;6.66;99.46
72326;DHT22;60278;47.980;18.780;2022-12-05T19:49:55;6.57;99.99
72326;DHT22;60278;47.980;18.780;2022-12-05T19:53:28;6.44;99.99
72326;DHT22;60278;47.980;18.780;2022-12-05T19:56:59;6.43;99.99
72326;DHT22;60278;47.980;18.780;2022-12-05T20:00:30;6.44;99.99
72326;DHT22;60278;47.980;18.780;2022-12-05T20:04:07;6.49;99.99
72326;DHT22;60278;47.980;18.780;2022-12-05T20:07:39;6.43;99.99
72326;DHT22;60278;47.980;18.780;2022-12-05T20:11:13;6.60;99.99
72326;DHT22;60278;47.980;18.780;2022-12-05T20:14:44;6.47;99.99
72326;DHT22;60278;47.980;18.780;2022-12-05T20:18:15;6.49;99.99
72326;DHT22;60278;47.980;18.780;2022-12-05T20:21:46;6.54;99.99
72326;DHT22;60278;47.980;18.780;2022-12-05T20:25:18;6.47;99.99
72326;DHT22;60278;47.980;18.780;2022-12-05T20:28:49;6.50;99.99
72326;DHT22;60278;47.980;18.780;2022-12-05T20:32:20;6.57;99.99
72326;DHT22;60278;47.980;18.780;2022-12-05T20:35:51;6.60;99.99
72326;DHT22;60278;47.980;18.780;2022-12-05T20:39:22;6.63;99.99
72326;DHT22;60278;47.980;18.780;2022-12-05T20:42:54;6.60;99.99
72326;DHT22;60278;47.980;18.780;2022-12-05T20:46:26;6.67;99.99
72326;DHT22;60278;47.980;18.780;2022-12-05T20:49:58;6.70;99.99
72326;DHT22;60278;47.980;18.780;2022-12-05T20:53:31;6.69;99.99
72326;DHT22;60278;47.980;18.780;2022-12-05T20:57:02;6.73;99.99
72326;DHT22;60278;47.980;18.780;2022-12-05T21:00:34;6.70;99.99
72326;DHT22;60278;47.980;18.780;2022-12-05T21:04:06;6.64;99.99
72326;DHT22;60278;47.980;18.780;2022-12-05T21:07:37;6.66;99.99
72326;DHT22;60278;47.980;18.780;2022-12-05T21:11:09;6.73;99.99
72326;DHT22;60278;47.980;18.780;2022-12-05T21:14:41;6.71;99.99
72326;DHT22;60278;47.980;18.780;2022-12-05T21:18:12;6.79;99.99
72326;DHT22;60278;47.980;18.780;2022-12-05T21:21:43;6.79;99.99
72326;DHT22;60278;47.980;18.780;2022-12-05T21:25:14;6.81;99.99
72326;DHT22;60278;47.980;18.780;2022-12-05T21:28:45;6.71;99.99
72326;DHT22;60278;47.980;18.780;2022-12-05T21:32:16;6.77;99.99
72326;DHT22;60278;47.980;18.780;2022-12-05T21:35:53;6.88;99.99
72326;DHT22;60278;47.980;18.780;2022-12-05T21:39:25;6.88;99.99
72326;DHT22;60278;47.980;18.780;2022-12-05T21:42:56;6.77;99.99
72326;DHT22;60278;47.980;18.780;2022-12-05T21:46:27;6.77;99.99
72326;DHT22;60278;47.980;18.780;2022-12-05T21:49:58;6.76;99.99
72326;DHT22;60278;47.980;18.780;2022-12-05T21:53:29;6.73;99.99
72326;DHT22;60278;47.980;18.780;2022-12-05T21:57:00;6.83;99.99
72326;DHT22;60278;47.980;18.780;2022-12-05T22:00:31;6.88;99.99
72326;DHT22;60278;47.980;18.780;2022-12-05T22:04:02;6.94;99.99
72326;DHT22;60278;47.980;18.780;2022-12-05T22:07:33;6.83;99.99
72326;DHT22;60278;47.980;18.780;2022-12-05T22:11:13;6.88;99.99
72326;DHT22;60278;47.980;18.780;2022-12-05T22:14:44;6.83;99.99
72326;DHT22;60278;47.980;18.780;2022-12-05T22:18:15;6.81;99.99
72326;DHT22;60278;47.980;18.780;2022-12-05T22:21:46;6.94;99.99
72326;DHT22;60278;47.980;18.780;2022-12-05T22:25:17;6.91;99.99
72326;DHT22;60278;47.980;18.780;2022-12-05T22:28:49;6.92;99.99
72326;DHT22;60278;47.980;18.780;2022-12-05T22:32:21;6.98;99.99
72326;DHT22;60278;47.980;18.780;2022-12-05T22:35:54;6.97;99.99
72326;DHT22;60278;47.980;18.780;2022-12-05T22:39:26;6.97;99.99
72326;DHT22;60278;47.980;18.780;2022-12-05T22:42:57;6.98;99.99
72326;DHT22;60278;47.980;18.780;2022-12-05T22:46:28;7.07;99.99
72326;DHT22;60278;47.980;18.780;2022-12-05T22:49:59;7.14;99.99
72326;DHT22;60278;47.980;18.780;2022-12-05T22:53:30;7.11;99.99
72326;DHT22;60278;47.980;18.780;2022-12-05T22:57:02;7.05;99.99
72326;DHT22;60278;47.980;18.780;2022-12-05T23:00:33;7.12;99.99
72326;DHT22;60278;47.980;18.780;2022-12-05T23:04:06;6.97;99.99
72326;DHT22;60278;47.980;18.780;2022-12-05T23:07:39;6.98;99.99
72326;DHT22;60278;47.980;18.780;2022-12-05T23:11:10;7.07;99.99
72326;DHT22;60278;47.980;18.780;2022-12-05T23:14:41;6.94;99.99
72326;DHT22;60278;47.980;18.780;2022-12-05T23:18:12;6.90;99.99
72326;DHT22;60278;47.980;18.780;2022-12-05T23:21:44;6.84;99.99
72326;DHT22;60278;47.980;18.780;2022-12-05T23:25:15;6.74;99.99
72326;DHT22;60278;47.980;18.780;2022-12-05T23:28:46;6.79;99.99
72326;DHT22;60278;47.980;18.780;2022-12-05T23:32:17;7.07;99.99
72326;DHT22;60278;47.980;18.780;2022-12-05T23:35:52;7.19;99.55
72326;DHT22;60278;47.980;18.780;2022-12-05T23:39:23;7.12;99.76
72326;DHT22;60278;47.980;18.780;2022-12-05T23:42:54;6.90;99.99
72326;DHT22;60278;47.980;18.780;2022-12-05T23:46:26;7.08;99.96
72326;DHT22;60278;47.980;18.780;2022-12-05T23:49:57;7.14;99.99
72326;DHT22;60278;47.980;18.780;2022-12-05T23:53:30;6.92;99.99
72326;DHT22;60278;47.980;18.780;2022-12-05T23:57:01;6.81;99.99
